createdAt,value
2022-07-31T00:04:20.668Z,22.30
2022-07-31T00:09:52.395Z,22.40
2022-07-31T00:14:48.113Z,22.50
2022-07-31T00:19:53.108Z,22.50
2022-07-31T00:24:57.122Z,22.60
2022-07-31T00:30:00.770Z,22.60
2022-07-31T00:35:07.024Z,22.60
2022-07-31T00:40:15.698Z,22.60
2022-07-31T00:45:19.382Z,22.50
2022-07-31T00:50:31.192Z,22.40
2022-07-31T00:55:51.319Z,22.40
2022-07-31T01:00:55.747Z,22.40
2022-07-31T01:06:01.168Z,22.40
2022-07-31T01:11:09.552Z,22.40
2022-07-31T01:16:16.485Z,22.30
2022-07-31T01:21:28.538Z,22.30
2022-07-31T01:26:43.274Z,22.30
2022-07-31T01:31:58.740Z,22.20
2022-07-31T01:37:10.539Z,22.10
2022-07-31T01:42:18.692Z,22.00
2022-07-31T01:47:24.901Z,22.00
2022-07-31T01:52:31.619Z,22.00
2022-07-31T01:57:37.355Z,22.10
2022-07-31T02:02:45.418Z,22.10
2022-07-31T02:07:51.281Z,22.10
2022-07-31T02:13:03.874Z,22.00
2022-07-31T02:18:11.399Z,22.00
2022-07-31T02:23:17.119Z,22.00
2022-07-31T02:28:22.231Z,22.00
2022-07-31T02:33:27.843Z,22.10
2022-07-31T02:38:33.613Z,22.10
2022-07-31T02:43:37.908Z,22.20
2022-07-31T02:48:44.151Z,22.20
2022-07-31T02:53:48.371Z,22.10
2022-07-31T02:58:52.564Z,22.10
2022-07-31T03:03:59.668Z,22.10
2022-07-31T03:09:04.709Z,22.10
2022-07-31T03:14:11.820Z,22.00
2022-07-31T03:19:17.260Z,22.00
2022-07-31T03:24:21.230Z,21.90
2022-07-31T03:29:42.376Z,21.80
2022-07-31T03:34:49.506Z,21.70
2022-07-31T03:39:53.269Z,21.70
2022-07-31T03:44:57.404Z,21.70
2022-07-31T03:50:03.390Z,21.70
2022-07-31T03:55:08.856Z,21.70
2022-07-31T04:00:16.995Z,21.70
2022-07-31T04:05:24.024Z,21.70
2022-07-31T04:10:28.025Z,21.70
2022-07-31T04:15:31.822Z,21.70
2022-07-31T04:20:36.970Z,21.70
2022-07-31T04:25:40.817Z,21.70
2022-07-31T04:30:44.564Z,21.70
2022-07-31T04:35:49.724Z,21.70
2022-07-31T04:40:53.454Z,21.70
2022-07-31T04:45:57.848Z,21.70
2022-07-31T04:51:02.874Z,21.70
2022-07-31T04:56:24.494Z,21.70
2022-07-31T05:01:28.577Z,21.70
2022-07-31T05:06:38.439Z,21.60
2022-07-31T05:11:43.017Z,21.60
2022-07-31T05:16:47.301Z,21.60
2022-07-31T05:21:55.625Z,21.70
2022-07-31T05:27:01.948Z,21.80
2022-07-31T05:32:06.464Z,21.90
2022-07-31T05:37:12.061Z,22.00
2022-07-31T05:42:16.914Z,22.00
2022-07-31T05:47:20.759Z,22.10
2022-07-31T05:52:25.798Z,22.10
2022-07-31T05:57:33.250Z,22.20
2022-07-31T06:02:37.733Z,22.10
2022-07-31T06:07:51.022Z,22.20
2022-07-31T06:12:55.454Z,22.30
2022-07-31T06:17:59.222Z,22.20
2022-07-31T06:23:14.699Z,22.30
2022-07-31T06:28:33.821Z,22.30
2022-07-31T06:33:52.781Z,22.20
2022-07-31T06:38:59.169Z,22.20
2022-07-31T06:44:06.640Z,22.20
2022-07-31T06:49:13.028Z,22.10
2022-07-31T06:54:18.146Z,22.20
2022-07-31T06:59:39.144Z,22.20
2022-07-31T07:05:05.093Z,22.20
2022-07-31T07:10:10.279Z,22.30
2022-07-31T07:15:15.762Z,22.40
2022-07-31T07:20:20.045Z,22.50
2022-07-31T07:25:25.244Z,22.60
2022-07-31T07:30:30.292Z,22.60
2022-07-31T07:35:34.510Z,22.60
2022-07-31T07:40:42.049Z,22.70
2022-07-31T07:45:45.973Z,22.70
2022-07-31T07:50:49.713Z,22.80
2022-07-31T07:55:56.476Z,23.00
2022-07-31T08:01:04.623Z,23.00
2022-07-31T08:06:09.211Z,23.00
2022-07-31T08:11:17.170Z,23.00
2022-07-31T08:16:25.979Z,23.10
2022-07-31T08:21:29.820Z,23.30
2022-07-31T08:26:48.688Z,23.50
2022-07-31T08:31:52.850Z,23.70
2022-07-31T08:36:58.447Z,23.70
2022-07-31T08:42:07.417Z,23.90
2022-07-31T08:47:14.871Z,24.10
2022-07-31T08:52:21.183Z,24.20
2022-07-31T08:57:27.989Z,24.30
2022-07-31T09:02:33.547Z,24.40
2022-07-31T09:07:38.779Z,24.60
2022-07-31T09:12:43.781Z,24.70
2022-07-31T09:17:53.716Z,24.80
2022-07-31T09:23:07.392Z,24.70
2022-07-31T09:28:12.867Z,24.90
2022-07-31T09:33:17.546Z,25.20
2022-07-31T09:38:32.418Z,25.50
2022-07-31T09:43:51.587Z,26.20
2022-07-31T09:49:00.291Z,26.70
2022-07-31T09:54:04.798Z,27.00
2022-07-31T09:59:11.722Z,27.30
2022-07-31T10:04:17.479Z,27.60
2022-07-31T10:09:22.729Z,27.90
2022-07-31T10:14:31.957Z,28.40
2022-07-31T10:19:39.370Z,29.30
2022-07-31T10:24:48.106Z,29.90
2022-07-31T10:29:54.474Z,30.30
2022-07-31T10:34:58.091Z,30.50
2022-07-31T10:40:09.834Z,30.60
2022-07-31T10:45:16.637Z,31.00
2022-07-31T10:50:23.731Z,31.10
2022-07-31T10:55:30.157Z,31.70
2022-07-31T11:00:35.861Z,32.10
2022-07-31T11:06:01.076Z,32.60
2022-07-31T11:11:11.828Z,32.70
2022-07-31T11:16:20.753Z,33.00
2022-07-31T11:21:40.029Z,33.30
2022-07-31T11:26:49.193Z,33.40
2022-07-31T11:31:54.209Z,33.70
2022-07-31T11:36:57.862Z,33.80
2022-07-31T11:42:03.424Z,33.90
2022-07-31T11:48:09.587Z,34.10
2022-07-31T11:52:37.249Z,33.90
2022-07-31T11:57:51.380Z,33.70
2022-07-31T12:02:58.775Z,33.70
2022-07-31T12:08:02.590Z,33.60
2022-07-31T12:13:06.096Z,33.30
2022-07-31T12:18:11.062Z,33.60
2022-07-31T12:23:40.551Z,34.00
2022-07-31T12:28:40.198Z,34.40
2022-07-31T12:33:45.697Z,34.80
2022-07-31T12:39:00.323Z,35.50
2022-07-31T12:44:13.402Z,36.20
2022-07-31T12:49:19.972Z,36.20
2022-07-31T12:54:24.115Z,36.10
2022-07-31T12:59:27.807Z,36.10
2022-07-31T13:04:32.849Z,36.40
2022-07-31T13:09:36.450Z,36.20
2022-07-31T13:14:40.205Z,36.60
2022-07-31T13:19:45.163Z,37.10
2022-07-31T13:24:48.764Z,37.30
2022-07-31T13:29:53.568Z,37.60
2022-07-31T13:35:23.899Z,37.50
2022-07-31T13:40:42.987Z,37.30
2022-07-31T13:45:46.561Z,37.10
2022-07-31T13:50:51.615Z,36.70
2022-07-31T13:55:55.227Z,36.30
2022-07-31T14:01:04.173Z,36.20
2022-07-31T14:06:09.638Z,36.80
2022-07-31T14:11:13.813Z,36.90
2022-07-31T14:16:19.003Z,36.70
2022-07-31T14:21:24.280Z,36.40
2022-07-31T14:26:27.990Z,35.90
2022-07-31T14:31:31.816Z,35.60
2022-07-31T14:36:36.813Z,35.30
2022-07-31T14:41:40.418Z,34.90
2022-07-31T14:46:44.025Z,34.60
2022-07-31T14:51:49.065Z,34.00
2022-07-31T14:57:01.322Z,33.50
2022-07-31T15:02:06.232Z,33.10
2022-07-31T15:07:34.115Z,32.70
2022-07-31T15:12:35.493Z,32.40
2022-07-31T15:17:39.081Z,32.10
2022-07-31T15:22:44.114Z,31.90
2022-07-31T15:27:47.776Z,31.80
2022-07-31T15:32:53.486Z,31.60
2022-07-31T15:37:59.587Z,31.40
2022-07-31T15:43:03.169Z,31.10
2022-07-31T15:48:10.152Z,31.00
2022-07-31T15:53:15.299Z,30.90
2022-07-31T15:58:18.931Z,30.80
2022-07-31T16:03:22.672Z,30.70
2022-07-31T16:08:35.198Z,30.50
2022-07-31T16:13:39.567Z,30.50
2022-07-31T16:18:43.157Z,30.40
2022-07-31T16:23:48.193Z,30.20
2022-07-31T16:28:54.128Z,30.20
2022-07-31T16:33:58.025Z,30.10
2022-07-31T16:39:19.428Z,30.00
2022-07-31T16:44:24.106Z,30.00
2022-07-31T16:49:31.900Z,30.00
2022-07-31T16:54:42.587Z,29.90
2022-07-31T16:59:57.294Z,29.80
2022-07-31T17:05:01.546Z,29.70
2022-07-31T17:10:07.630Z,29.70
2022-07-31T17:15:12.270Z,29.60
2022-07-31T17:20:23.187Z,29.60
2022-07-31T17:25:28.619Z,29.50
2022-07-31T17:30:32.739Z,29.50
2022-07-31T17:35:36.310Z,29.40
2022-07-31T17:40:43.878Z,29.30
2022-07-31T17:45:59.346Z,29.40
2022-07-31T17:51:10.567Z,29.40
2022-07-31T17:56:16.183Z,29.30
2022-07-31T18:01:19.969Z,29.30
2022-07-31T18:06:23.617Z,29.20
2022-07-31T18:11:28.733Z,29.20
2022-07-31T18:16:32.325Z,29.00
2022-07-31T18:21:35.933Z,29.00
2022-07-31T18:26:40.986Z,28.90
2022-07-31T18:31:45.003Z,28.90
2022-07-31T18:36:54.405Z,28.80
2022-07-31T18:41:59.873Z,28.90
2022-07-31T18:47:03.508Z,28.60
2022-07-31T18:52:07.589Z,28.50
2022-07-31T18:57:12.914Z,28.20
2022-07-31T19:02:16.713Z,28.00
2022-07-31T19:07:25.777Z,27.80
2022-07-31T19:12:30.745Z,27.60
2022-07-31T19:17:44.517Z,27.50
2022-07-31T19:22:48.926Z,27.30
2022-07-31T19:27:53.904Z,27.20
2022-07-31T19:32:59.316Z,27.00
2022-07-31T19:38:04.541Z,26.90
2022-07-31T19:43:11.575Z,26.80
2022-07-31T19:48:15.157Z,26.60
2022-07-31T19:53:18.763Z,26.50
2022-07-31T19:58:23.739Z,26.40
2022-07-31T20:03:27.475Z,26.20
2022-07-31T20:08:33.151Z,26.10
2022-07-31T20:13:38.781Z,25.90
2022-07-31T20:18:42.430Z,25.70
2022-07-31T20:23:49.123Z,25.70
2022-07-31T20:28:54.180Z,25.60
2022-07-31T20:33:58.299Z,25.40
2022-07-31T20:39:02.076Z,25.30
2022-07-31T20:44:07.109Z,25.20
2022-07-31T20:49:19.801Z,25.10
2022-07-31T20:54:35.011Z,25.10
2022-07-31T20:59:40.101Z,25.00
2022-07-31T21:04:43.741Z,25.00
2022-07-31T21:09:47.392Z,24.80
2022-07-31T21:14:52.390Z,24.70
2022-07-31T21:19:56.266Z,24.60
2022-07-31T21:25:00.859Z,24.50
2022-07-31T21:30:07.284Z,24.50
2022-07-31T21:35:12.237Z,24.40
2022-07-31T21:40:17.156Z,24.30
2022-07-31T21:45:23.138Z,24.20
2022-07-31T21:50:29.638Z,24.10
2022-07-31T21:55:33.246Z,23.90
2022-07-31T22:00:38.672Z,23.80
2022-07-31T22:06:00.065Z,23.70
2022-07-31T22:11:03.662Z,23.60
2022-07-31T22:16:08.716Z,23.50
2022-07-31T22:21:12.780Z,23.40
2022-07-31T22:26:16.780Z,23.30
2022-07-31T22:31:22.306Z,23.30
2022-07-31T22:36:26.738Z,23.30
2022-07-31T22:41:30.256Z,23.40
2022-07-31T22:46:36.909Z,23.50
2022-07-31T22:51:44.821Z,23.50
2022-07-31T22:56:50.028Z,23.50
2022-07-31T23:01:55.090Z,23.50
2022-07-31T23:06:58.728Z,23.50
2022-07-31T23:12:03.532Z,23.50
2022-07-31T23:17:08.895Z,23.60
2022-07-31T23:22:33.552Z,23.60
2022-07-31T23:27:37.754Z,23.60
2022-07-31T23:32:42.894Z,23.60
2022-07-31T23:37:47.763Z,23.60
2022-07-31T23:42:51.365Z,23.50
2022-07-31T23:47:58.871Z,23.50
2022-07-31T23:53:02.733Z,23.50
2022-07-31T23:58:06.386Z,23.50
